createdAt,value
2023-05-12T00:00:13.300Z,49.17
2023-05-12T00:02:41.329Z,48.96
2023-05-12T00:05:09.032Z,49.11
2023-05-12T00:07:36.600Z,48.77
2023-05-12T00:10:03.660Z,48.73
2023-05-12T00:12:30.598Z,48.88
2023-05-12T00:14:57.511Z,48.85
2023-05-12T00:17:24.409Z,48.28
2023-05-12T00:19:51.450Z,48.22
2023-05-12T00:22:18.309Z,47.88
2023-05-12T00:24:45.253Z,47.79
2023-05-12T00:27:13.849Z,47.73
2023-05-12T00:29:40.689Z,47.58
2023-05-12T00:32:08.367Z,47.20
2023-05-12T00:34:35.306Z,47.25
2023-05-12T00:37:02.256Z,47.36
2023-05-12T00:39:29.152Z,47.40
2023-05-12T00:41:57.398Z,47.53
2023-05-12T00:44:24.652Z,47.56
2023-05-12T00:46:52.002Z,47.54
2023-05-12T00:49:19.680Z,47.54
2023-05-12T00:51:46.569Z,47.68
2023-05-12T00:54:13.682Z,47.87
2023-05-12T00:56:41.485Z,47.95
2023-05-12T00:59:09.076Z,47.99
2023-05-12T01:01:39.461Z,48.23
2023-05-12T01:04:06.451Z,48.16
2023-05-12T01:06:39.931Z,48.18
2023-05-12T01:09:08.784Z,48.52
2023-05-12T01:11:36.282Z,48.65
2023-05-12T01:14:03.504Z,48.84
2023-05-12T01:16:34.037Z,48.82
2023-05-12T01:19:01.240Z,48.82
2023-05-12T01:21:28.253Z,48.76
2023-05-12T01:23:58.505Z,49.00
2023-05-12T01:26:27.792Z,49.28
2023-05-12T01:28:54.952Z,49.24
2023-05-12T01:31:21.911Z,49.42
2023-05-12T01:33:48.935Z,49.81
2023-05-12T01:36:16.396Z,49.86
2023-05-12T01:38:43.652Z,50.15
2023-05-12T01:41:10.546Z,50.34
2023-05-12T01:43:37.452Z,50.85
2023-05-12T01:46:04.460Z,50.71
2023-05-12T01:48:31.541Z,51.10
2023-05-12T01:51:02.194Z,51.29
2023-05-12T01:53:29.118Z,51.50
2023-05-12T01:55:55.991Z,51.73
2023-05-12T01:58:27.028Z,51.64
2023-05-12T02:00:54.190Z,51.85
2023-05-12T02:03:22.025Z,52.09
2023-05-12T02:05:49.025Z,52.02
2023-05-12T02:08:15.956Z,52.23
2023-05-12T02:10:42.825Z,52.43
2023-05-12T02:13:09.961Z,52.38
2023-05-12T02:15:37.018Z,52.77
2023-05-12T02:18:04.654Z,52.43
2023-05-12T02:20:31.652Z,52.40
2023-05-12T02:22:58.487Z,52.15
2023-05-12T02:25:25.362Z,52.47
2023-05-12T02:27:52.277Z,52.37
2023-05-12T02:30:19.526Z,52.06
2023-05-12T02:32:47.264Z,52.29
2023-05-12T02:35:14.569Z,52.12
2023-05-12T02:37:41.924Z,52.27
2023-05-12T02:40:09.688Z,52.03
2023-05-12T02:42:38.574Z,52.24
2023-05-12T02:45:06.498Z,52.10
2023-05-12T02:47:33.979Z,51.86
2023-05-12T02:50:00.995Z,51.92
2023-05-12T02:52:28.033Z,51.81
2023-05-12T02:54:56.319Z,52.29
2023-05-12T02:57:23.258Z,52.09
2023-05-12T02:59:50.210Z,52.17
2023-05-12T03:02:17.177Z,52.33
2023-05-12T03:04:44.115Z,52.47
2023-05-12T03:07:11.065Z,52.55
2023-05-12T03:09:38.013Z,52.70
2023-05-12T03:12:05.579Z,52.48
2023-05-12T03:14:32.535Z,52.72
2023-05-12T03:16:59.428Z,52.50
2023-05-12T03:19:28.069Z,52.71
2023-05-12T03:21:55.024Z,52.53
2023-05-12T03:24:21.868Z,52.32
2023-05-12T03:26:48.688Z,52.06
2023-05-12T03:29:15.671Z,51.80
2023-05-12T03:31:43.171Z,51.44
2023-05-12T03:34:10.368Z,51.13
2023-05-12T03:36:37.637Z,50.84
2023-05-12T03:39:04.795Z,50.40
2023-05-12T03:41:32.970Z,49.83
2023-05-12T03:44:00.176Z,49.53
2023-05-12T03:46:27.282Z,49.13
2023-05-12T03:48:54.239Z,48.92
2023-05-12T03:51:21.071Z,48.54
2023-05-12T03:53:48.047Z,48.25
2023-05-12T03:56:15.908Z,47.79
2023-05-12T03:58:43.373Z,47.43
2023-05-12T04:01:10.209Z,47.04
2023-05-12T04:03:37.420Z,47.13
2023-05-12T04:06:04.768Z,46.88
2023-05-12T04:08:31.613Z,46.52
2023-05-12T04:10:59.084Z,46.13
2023-05-12T04:13:26.093Z,46.19
2023-05-12T04:15:55.732Z,46.06
2023-05-12T04:18:23.081Z,45.93
2023-05-12T04:20:50.022Z,45.64
2023-05-12T04:23:16.984Z,44.88
2023-05-12T04:25:43.824Z,44.44
2023-05-12T04:28:12.057Z,44.11
2023-05-12T04:30:40.586Z,43.63
2023-05-12T04:33:08.228Z,43.32
2023-05-12T04:35:35.936Z,43.46
2023-05-12T04:38:03.640Z,43.74
2023-05-12T04:40:32.664Z,43.34
2023-05-12T04:43:01.281Z,43.14
2023-05-12T04:45:28.253Z,42.44
2023-05-12T04:47:55.126Z,42.53
2023-05-12T04:50:22.021Z,42.08
2023-05-12T04:52:49.067Z,41.94
2023-05-12T04:55:16.653Z,41.93
2023-05-12T04:57:44.322Z,41.92
2023-05-12T05:00:12.082Z,41.60
2023-05-12T05:02:39.515Z,40.75
2023-05-12T05:05:07.206Z,40.55
2023-05-12T05:07:34.461Z,40.50
2023-05-12T05:10:01.960Z,40.70
2023-05-12T05:12:29.182Z,40.66
2023-05-12T05:14:56.293Z,40.37
2023-05-12T05:17:23.164Z,40.19
2023-05-12T05:19:58.393Z,39.09
2023-05-12T05:22:28.655Z,38.32
2023-05-12T05:24:56.433Z,38.09
2023-05-12T05:27:23.329Z,36.94
2023-05-12T05:29:51.144Z,36.65
2023-05-12T05:32:18.411Z,35.56
2023-05-12T05:34:45.792Z,35.17
2023-05-12T05:37:13.123Z,35.21
2023-05-12T05:39:40.396Z,35.20
2023-05-12T05:42:07.532Z,34.82
2023-05-12T05:44:35.224Z,34.24
2023-05-12T05:47:03.345Z,33.79
2023-05-12T05:49:31.261Z,33.81
2023-05-12T05:51:59.837Z,34.27
2023-05-12T05:54:27.543Z,34.20
2023-05-12T05:56:54.736Z,34.00
2023-05-12T05:59:21.752Z,33.47
2023-05-12T06:01:48.677Z,33.55
2023-05-12T06:04:15.893Z,32.89
2023-05-12T06:06:43.008Z,33.15
2023-05-12T06:09:12.487Z,32.98
2023-05-12T06:11:39.650Z,32.53
2023-05-12T06:14:06.600Z,31.81
2023-05-12T06:16:33.652Z,30.76
2023-05-12T06:19:00.658Z,29.79
2023-05-12T06:21:27.743Z,28.14
2023-05-12T06:23:56.259Z,27.70
2023-05-12T06:26:23.285Z,27.85
2023-05-12T06:28:50.470Z,28.41
2023-05-12T06:31:17.453Z,28.56
2023-05-12T06:33:44.809Z,27.62
2023-05-12T06:36:12.963Z,27.75
2023-05-12T06:38:41.310Z,27.75
2023-05-12T06:41:08.266Z,27.16
2023-05-12T06:43:35.125Z,27.80
2023-05-12T06:46:03.884Z,27.35
2023-05-12T06:48:31.063Z,28.48
2023-05-12T06:50:58.064Z,28.02
2023-05-12T06:53:29.565Z,28.49
2023-05-12T06:55:56.627Z,28.01
2023-05-12T06:58:24.163Z,28.25
2023-05-12T07:00:51.078Z,28.08
2023-05-12T07:03:17.979Z,28.22
2023-05-12T07:05:45.765Z,28.28
2023-05-12T07:08:12.749Z,28.30
2023-05-12T07:10:40.285Z,28.09
2023-05-12T07:13:07.355Z,28.18
2023-05-12T07:15:34.377Z,28.20
2023-05-12T07:18:01.763Z,28.31
2023-05-12T07:20:28.799Z,28.62
2023-05-12T07:22:56.760Z,28.04
2023-05-12T07:25:23.866Z,27.95
2023-05-12T07:27:51.046Z,28.39
2023-05-12T07:30:18.137Z,28.40
2023-05-12T07:32:45.009Z,27.86
2023-05-12T07:35:12.656Z,28.31
2023-05-12T07:37:39.615Z,28.58
2023-05-12T07:40:07.543Z,28.54
2023-05-12T07:42:34.411Z,27.96
2023-05-12T07:45:01.360Z,27.81
2023-05-12T07:47:28.865Z,27.67
2023-05-12T07:49:55.885Z,28.10
2023-05-12T07:52:22.932Z,27.86
2023-05-12T07:54:49.847Z,26.28
2023-05-12T07:57:17.036Z,25.55
2023-05-12T07:59:44.417Z,24.48
2023-05-12T08:02:11.371Z,25.62
2023-05-12T08:04:38.434Z,26.05
2023-05-12T08:07:05.470Z,26.05
2023-05-12T08:09:32.406Z,26.64
2023-05-12T08:11:59.459Z,26.62
2023-05-12T08:14:26.517Z,27.05
2023-05-12T08:16:53.393Z,27.21
2023-05-12T08:19:20.410Z,26.96
2023-05-12T08:21:47.360Z,26.66
2023-05-12T08:24:14.309Z,26.15
2023-05-12T08:26:41.162Z,25.55
2023-05-12T08:29:08.839Z,25.05
2023-05-12T08:31:37.868Z,24.31
2023-05-12T08:34:10.378Z,24.55
2023-05-12T08:36:39.399Z,25.30
2023-05-12T08:39:06.532Z,26.22
2023-05-12T08:41:44.811Z,26.55
2023-05-12T08:44:12.173Z,26.79
2023-05-12T08:46:39.324Z,27.51
2023-05-12T08:49:06.540Z,27.01
2023-05-12T08:51:33.485Z,27.07
2023-05-12T08:54:00.438Z,27.47
2023-05-12T08:58:57.614Z,27.94
2023-05-12T09:01:24.530Z,27.47
2023-05-12T09:03:53.209Z,28.09
2023-05-12T09:06:20.723Z,28.37
2023-05-12T09:08:47.717Z,28.68
2023-05-12T09:11:14.656Z,28.66
2023-05-12T09:14:06.536Z,28.50
2023-05-12T09:16:34.460Z,28.73
2023-05-12T09:19:02.787Z,28.68
2023-05-12T09:21:31.084Z,28.90
2023-05-12T09:24:09.138Z,28.94
2023-05-12T09:26:49.899Z,28.50
2023-05-12T09:29:27.892Z,28.66
2023-05-12T09:31:58.808Z,28.65
2023-05-12T09:34:30.705Z,28.87
2023-05-12T09:37:02.037Z,28.51
2023-05-12T09:39:29.224Z,28.20
2023-05-12T09:41:56.222Z,28.17
2023-05-12T09:44:23.727Z,28.07
2023-05-12T09:46:51.548Z,28.28
2023-05-12T09:49:20.435Z,28.81
2023-05-12T09:51:47.594Z,27.99
2023-05-12T09:54:28.513Z,27.77
2023-05-12T09:56:59.582Z,28.06
2023-05-12T09:59:36.510Z,27.42
2023-05-12T10:02:06.086Z,27.52
2023-05-12T10:04:40.425Z,27.68
2023-05-12T10:07:12.069Z,28.23
2023-05-12T10:09:42.117Z,28.07
2023-05-12T10:12:09.512Z,28.77
2023-05-12T10:14:36.366Z,28.87
2023-05-12T10:17:03.321Z,29.17
2023-05-12T10:19:30.580Z,28.38
2023-05-12T10:21:57.874Z,28.24
2023-05-12T10:24:26.901Z,28.04
2023-05-12T10:26:57.785Z,27.83
2023-05-12T10:29:33.006Z,28.28
2023-05-12T10:32:01.340Z,28.25
2023-05-12T10:34:34.099Z,28.08
2023-05-12T10:37:01.468Z,28.52
2023-05-12T10:39:29.898Z,28.91
2023-05-12T10:42:07.581Z,28.72
2023-05-12T10:44:36.295Z,29.08
2023-05-12T10:47:03.329Z,28.95
2023-05-12T10:49:39.616Z,28.38
2023-05-12T10:52:07.503Z,27.70
2023-05-12T10:54:44.474Z,27.67
2023-05-12T10:57:18.884Z,27.66
2023-05-12T10:59:50.772Z,27.67
2023-05-12T11:02:20.780Z,27.87
2023-05-12T11:04:54.091Z,27.96
2023-05-12T11:07:24.436Z,27.95
2023-05-12T11:09:58.432Z,28.03
2023-05-12T11:12:27.711Z,28.09
2023-05-12T11:14:54.827Z,27.95
2023-05-12T11:17:21.939Z,27.50
2023-05-12T11:19:50.569Z,27.31
2023-05-12T11:22:20.178Z,27.17
2023-05-12T11:24:47.377Z,27.14
2023-05-12T11:27:18.523Z,27.14
2023-05-12T11:29:47.275Z,27.54
2023-05-12T11:32:15.859Z,27.34
2023-05-12T11:34:42.751Z,27.54
2023-05-12T11:37:09.746Z,27.30
2023-05-12T11:39:36.692Z,27.14
2023-05-12T11:42:12.068Z,26.75
2023-05-12T11:44:47.024Z,26.80
2023-05-12T11:47:14.633Z,27.42
2023-05-12T11:49:51.509Z,27.17
2023-05-12T11:52:20.728Z,27.39
2023-05-12T11:55:00.305Z,27.34
2023-05-12T11:57:31.946Z,27.48
2023-05-12T12:00:06.952Z,26.74
2023-05-12T12:02:34.702Z,25.93
2023-05-12T12:05:01.759Z,25.77
2023-05-12T12:07:38.149Z,26.14
2023-05-12T12:10:13.101Z,26.31
2023-05-12T12:12:41.119Z,26.10
2023-05-12T12:15:09.270Z,26.21
2023-05-12T12:17:36.255Z,26.50
2023-05-12T12:20:03.644Z,26.50
2023-05-12T12:22:34.351Z,26.70
2023-05-12T12:25:02.350Z,26.67
2023-05-12T12:27:29.314Z,26.22
2023-05-12T12:29:56.250Z,26.38
2023-05-12T12:32:23.193Z,26.65
2023-05-12T12:34:50.149Z,26.65
2023-05-12T12:37:17.399Z,26.66
2023-05-12T12:39:44.561Z,26.73
2023-05-12T12:42:11.503Z,26.86
2023-05-12T12:44:38.462Z,27.21
2023-05-12T12:47:05.563Z,27.20
2023-05-12T12:49:32.568Z,27.47
2023-05-12T12:51:59.527Z,27.50
2023-05-12T12:54:29.601Z,27.48
2023-05-12T12:56:57.005Z,27.38
2023-05-12T12:59:24.087Z,27.47
2023-05-12T13:01:51.007Z,27.76
2023-05-12T13:04:22.374Z,27.95
2023-05-12T13:06:49.507Z,28.27
2023-05-12T13:09:19.761Z,28.12
2023-05-12T13:11:47.918Z,27.11
2023-05-12T13:14:16.154Z,27.09
2023-05-12T13:16:43.564Z,26.77
2023-05-12T13:19:10.634Z,26.66
2023-05-12T13:21:37.991Z,26.71
2023-05-12T13:24:04.958Z,27.08
2023-05-12T13:26:32.170Z,27.10
2023-05-12T13:28:59.024Z,27.34
2023-05-12T13:31:26.137Z,27.26
2023-05-12T13:33:53.227Z,27.48
2023-05-12T13:36:20.080Z,27.25
2023-05-12T13:38:47.049Z,27.21
2023-05-12T13:41:13.975Z,27.14
2023-05-12T13:43:40.862Z,26.99
2023-05-12T13:46:08.521Z,26.95
2023-05-12T13:48:35.951Z,26.17
2023-05-12T13:51:02.798Z,26.01
2023-05-12T13:53:29.759Z,26.15
2023-05-12T13:55:56.702Z,26.01
2023-05-12T13:58:23.847Z,26.33
2023-05-12T14:00:50.702Z,26.52
2023-05-12T14:03:18.182Z,26.65
2023-05-12T14:05:45.218Z,26.60
2023-05-12T14:08:12.383Z,26.56
2023-05-12T14:10:39.198Z,26.77
2023-05-12T14:13:08.400Z,26.83
2023-05-12T14:15:47.954Z,26.93
2023-05-12T14:18:15.336Z,26.82
2023-05-12T14:20:42.287Z,27.11
2023-05-12T14:23:09.121Z,27.19
2023-05-12T14:25:35.960Z,27.06
2023-05-12T14:28:03.662Z,26.78
2023-05-12T14:30:31.046Z,26.56
2023-05-12T14:32:58.360Z,26.53
2023-05-12T14:35:27.913Z,26.64
2023-05-12T14:37:55.775Z,26.75
2023-05-12T14:40:23.529Z,26.80
2023-05-12T14:42:50.658Z,26.78
2023-05-12T14:45:17.893Z,26.89
2023-05-12T14:47:45.174Z,27.10
2023-05-12T14:50:12.394Z,27.22
2023-05-12T14:52:39.519Z,27.27
2023-05-12T14:55:11.720Z,27.36
2023-05-12T14:57:39.532Z,27.53
2023-05-12T15:00:10.944Z,27.38
2023-05-12T15:02:38.984Z,27.49
2023-05-12T15:05:07.629Z,27.60
2023-05-12T15:07:34.710Z,27.44
2023-05-12T15:10:01.571Z,27.56
2023-05-12T15:12:28.507Z,27.68
2023-05-12T15:14:56.464Z,27.83
2023-05-12T15:17:23.871Z,27.86
2023-05-12T15:19:51.245Z,28.06
2023-05-12T15:22:18.154Z,28.17
2023-05-12T15:24:45.094Z,28.26
2023-05-12T15:27:12.220Z,28.36
2023-05-12T15:29:40.136Z,28.50
2023-05-12T15:32:07.806Z,28.62
2023-05-12T15:34:35.364Z,28.64
2023-05-12T15:37:02.415Z,28.91
2023-05-12T15:39:29.418Z,29.00
2023-05-12T15:41:56.613Z,29.18
2023-05-12T15:44:23.420Z,29.19
2023-05-12T15:46:50.406Z,29.11
2023-05-12T15:49:17.499Z,29.20
2023-05-12T15:51:44.829Z,29.28
2023-05-12T15:54:12.698Z,29.39
2023-05-12T15:56:39.772Z,29.58
2023-05-12T15:59:07.684Z,29.59
2023-05-12T16:01:34.816Z,29.64
2023-05-12T16:04:01.800Z,29.72
2023-05-12T16:06:28.866Z,29.83
2023-05-12T16:08:55.941Z,29.92
2023-05-12T16:11:22.746Z,30.00
2023-05-12T16:13:52.521Z,30.07
2023-05-12T16:16:19.612Z,29.99
2023-05-12T16:18:46.730Z,29.98
2023-05-12T16:21:13.865Z,30.13
2023-05-12T16:23:40.820Z,30.32
2023-05-12T16:26:07.768Z,30.46
2023-05-12T16:28:34.721Z,30.59
2023-05-12T16:31:04.866Z,30.60
2023-05-12T16:33:31.789Z,30.62
2023-05-12T16:35:58.636Z,30.76
2023-05-12T16:38:25.552Z,31.02
2023-05-12T16:40:52.389Z,30.84
2023-05-12T16:43:19.307Z,31.15
2023-05-12T16:45:46.464Z,31.10
2023-05-12T16:48:13.490Z,31.20
2023-05-12T16:50:40.347Z,31.26
2023-05-12T16:53:07.212Z,31.39
2023-05-12T16:55:34.134Z,31.55
2023-05-12T16:58:01.827Z,31.66
2023-05-12T17:00:28.957Z,31.69
2023-05-12T17:02:55.944Z,31.70
2023-05-12T17:05:23.333Z,31.80
2023-05-12T17:07:51.144Z,31.99
2023-05-12T17:10:18.093Z,32.09
2023-05-12T17:12:44.942Z,32.27
2023-05-12T17:15:12.032Z,32.36
2023-05-12T17:17:39.569Z,32.56
2023-05-12T17:20:07.746Z,32.75
2023-05-12T17:22:37.318Z,33.05
2023-05-12T17:25:04.949Z,33.27
2023-05-12T17:27:31.865Z,33.41
2023-05-12T17:29:59.937Z,33.58
2023-05-12T17:32:27.201Z,33.78
2023-05-12T17:34:54.102Z,33.84
2023-05-12T17:37:20.975Z,33.93
2023-05-12T17:39:48.017Z,34.05
2023-05-12T17:42:14.838Z,34.15
2023-05-12T17:44:41.859Z,34.34
2023-05-12T17:47:08.987Z,34.51
2023-05-12T17:49:36.371Z,34.64
2023-05-12T17:52:03.878Z,34.74
2023-05-12T17:54:30.794Z,34.85
2023-05-12T17:56:58.050Z,34.82
2023-05-12T17:59:25.190Z,34.96
2023-05-12T18:01:52.101Z,35.03
2023-05-12T18:04:19.422Z,35.38
2023-05-12T18:06:50.544Z,35.53
2023-05-12T18:09:17.904Z,35.97
2023-05-12T18:11:45.060Z,36.90
2023-05-12T18:14:11.925Z,37.23
2023-05-12T18:16:39.089Z,37.03
2023-05-12T18:19:05.977Z,36.86
2023-05-12T18:21:32.886Z,37.16
2023-05-12T18:23:59.721Z,37.05
2023-05-12T18:26:27.619Z,37.44
2023-05-12T18:28:54.497Z,37.82
2023-05-12T18:31:21.521Z,37.52
2023-05-12T18:33:49.458Z,38.26
2023-05-12T18:36:16.710Z,37.72
2023-05-12T18:38:43.777Z,37.58
2023-05-12T18:41:10.816Z,38.74
2023-05-12T18:43:37.877Z,39.69
2023-05-12T18:46:04.878Z,39.84
2023-05-12T18:48:31.874Z,39.27
2023-05-12T18:50:58.750Z,39.40
2023-05-12T18:53:25.774Z,39.79
2023-05-12T18:55:52.695Z,40.16
2023-05-12T18:58:19.575Z,40.61
2023-05-12T19:00:47.053Z,40.39
2023-05-12T19:03:13.923Z,40.76
2023-05-12T19:05:46.458Z,40.21
2023-05-12T19:08:13.825Z,39.29
2023-05-12T19:10:40.789Z,39.42
2023-05-12T19:13:08.280Z,39.53
2023-05-12T19:15:35.845Z,39.94
2023-05-12T19:18:02.832Z,39.98
2023-05-12T19:20:30.754Z,40.20
2023-05-12T19:22:59.784Z,40.33
2023-05-12T19:25:26.689Z,40.41
2023-05-12T19:27:53.557Z,40.06
2023-05-12T19:30:20.575Z,40.19
2023-05-12T19:32:47.908Z,40.24
2023-05-12T19:35:15.006Z,40.50
2023-05-12T19:37:42.040Z,40.84
2023-05-12T19:40:09.539Z,40.60
2023-05-12T19:42:38.131Z,40.97
2023-05-12T19:45:05.773Z,41.10
2023-05-12T19:47:33.565Z,41.44
2023-05-12T19:50:00.892Z,41.55
2023-05-12T19:52:30.810Z,41.59
2023-05-12T19:54:57.860Z,41.20
2023-05-12T19:57:24.847Z,40.88
2023-05-12T19:59:51.968Z,41.22
2023-05-12T20:02:18.858Z,41.74
2023-05-12T20:04:45.828Z,41.34
2023-05-12T20:07:13.230Z,41.98
2023-05-12T20:09:40.299Z,42.15
2023-05-12T20:12:08.099Z,42.70
2023-05-12T20:14:35.859Z,42.61
2023-05-12T20:17:07.508Z,40.62
2023-05-12T20:19:34.944Z,41.66
2023-05-12T20:22:01.905Z,42.34
2023-05-12T20:24:28.859Z,43.01
2023-05-12T20:26:56.323Z,42.83
2023-05-12T20:29:26.056Z,42.78
2023-05-12T20:31:53.020Z,42.61
2023-05-12T20:34:20.028Z,42.35
2023-05-12T20:36:47.168Z,42.55
2023-05-12T20:39:15.272Z,42.16
2023-05-12T20:41:43.032Z,42.94
2023-05-12T20:44:09.917Z,43.27
2023-05-12T20:46:38.441Z,43.68
2023-05-12T20:49:05.944Z,43.33
2023-05-12T20:51:32.844Z,43.26
2023-05-12T20:53:59.721Z,42.13
2023-05-12T20:56:27.158Z,41.89
2023-05-12T20:58:54.261Z,42.66
2023-05-12T21:01:21.438Z,43.77
2023-05-12T21:03:48.433Z,44.18
2023-05-12T21:06:15.694Z,43.64
2023-05-12T21:08:42.858Z,42.69
2023-05-12T21:11:14.934Z,41.86
2023-05-12T21:13:42.380Z,41.05
2023-05-12T21:16:09.372Z,40.55
2023-05-12T21:18:36.406Z,40.50
2023-05-12T21:21:04.305Z,40.58
2023-05-12T21:23:31.308Z,40.49
2023-05-12T21:25:58.164Z,40.25
2023-05-12T21:28:24.996Z,40.25
2023-05-12T21:30:51.954Z,40.42
2023-05-12T21:33:18.902Z,40.51
2023-05-12T21:35:45.742Z,40.69
2023-05-12T21:38:12.744Z,40.92
2023-05-12T21:40:39.760Z,40.85
2023-05-12T21:43:06.671Z,41.06
2023-05-12T21:45:33.552Z,41.33
2023-05-12T21:48:00.451Z,41.55
2023-05-12T21:50:27.456Z,41.53
2023-05-12T21:52:54.417Z,41.57
2023-05-12T21:55:21.566Z,41.98
2023-05-12T21:57:48.457Z,41.99
2023-05-12T22:00:19.040Z,42.22
2023-05-12T22:02:47.935Z,42.18
2023-05-12T22:05:15.199Z,42.20
2023-05-12T22:07:42.131Z,42.24
2023-05-12T22:10:09.920Z,42.23
2023-05-12T22:12:37.792Z,42.62
2023-05-12T22:15:05.254Z,43.70
2023-05-12T22:17:32.119Z,44.39
2023-05-12T22:19:59.565Z,45.16
2023-05-12T22:22:26.485Z,45.15
2023-05-12T22:24:53.298Z,44.80
2023-05-12T22:27:22.573Z,44.92
2023-05-12T22:29:49.966Z,45.00
2023-05-12T22:32:16.951Z,45.02
2023-05-12T22:34:43.954Z,45.04
2023-05-12T22:37:10.798Z,45.04
2023-05-12T22:39:37.724Z,45.94
2023-05-12T22:42:05.804Z,46.05
2023-05-12T22:44:32.653Z,45.47
2023-05-12T22:46:59.661Z,46.35
2023-05-12T22:49:26.655Z,46.96
2023-05-12T22:51:53.529Z,46.89
2023-05-12T22:54:20.370Z,47.71
2023-05-12T22:56:47.267Z,47.80
2023-05-12T22:59:14.257Z,48.03
2023-05-12T23:01:41.127Z,48.34
2023-05-12T23:04:08.078Z,47.70
2023-05-12T23:06:35.007Z,47.29
2023-05-12T23:09:01.887Z,47.95
2023-05-12T23:16:49.296Z,49.14
2023-05-12T23:19:16.342Z,48.35
2023-05-12T23:21:43.235Z,48.88
2023-05-12T23:24:10.165Z,49.69
2023-05-12T23:26:36.999Z,50.04
2023-05-12T23:29:04.379Z,49.12
2023-05-12T23:31:31.474Z,49.14
2023-05-12T23:33:58.303Z,49.04
2023-05-12T23:36:25.340Z,48.87
2023-05-12T23:38:54.672Z,48.93
2023-05-12T23:41:22.224Z,48.94
2023-05-12T23:43:49.079Z,48.88
2023-05-12T23:46:16.006Z,48.33
2023-05-12T23:48:43.163Z,47.97
2023-05-12T23:51:10.028Z,47.96
2023-05-12T23:53:36.839Z,48.06
2023-05-12T23:56:03.758Z,47.97
2023-05-12T23:58:30.685Z,48.37
